Time,TemperatureF,DewpointF,PressureIn,WindDirection,WindDirectionDegrees,WindSpeedMPH,WindSpeedGustMPH,Humidity,HourlyPrecipIn,Conditions,Clouds,dailyrainin,SoftwareType,DateUTC
2013-05-16 00:05:00,77.7,55.9,29.78,South,179,0.0,2.0,47,0.00,,,0.00,Wunderground v.1.15,2013-05-16 04:05:00,
2013-05-16 00:09:00,77.3,55.5,29.78,South,169,0.0,1.0,47,0.00,,,0.00,Wunderground v.1.15,2013-05-16 04:09:00,
2013-05-16 00:15:00,76.9,55.1,29.78,SE,135,0.0,1.0,47,0.00,,,0.00,Wunderground v.1.15,2013-05-16 04:15:00,
2013-05-16 00:24:00,76.4,55.8,29.79,SE,137,0.0,2.0,49,0.00,,,0.00,Wunderground v.1.15,2013-05-16 04:24:00,
2013-05-16 00:30:00,76.2,56.2,29.78,SE,132,1.0,1.0,50,0.00,,,0.00,Wunderground v.1.15,2013-05-16 04:30:00,
2013-05-16 00:34:00,76.1,56.7,29.78,South,176,1.0,1.0,51,0.00,,,0.00,Wunderground v.1.15,2013-05-16 04:34:00,
2013-05-16 00:40:00,75.9,55.9,29.78,South,176,1.0,1.0,50,0.00,,,0.00,Wunderground v.1.15,2013-05-16 04:40:00,
2013-05-16 00:45:00,75.7,56.8,29.78,South,176,0.0,1.0,52,0.00,,,0.00,Wunderground v.1.15,2013-05-16 04:45:00,
2013-05-16 00:55:00,74.9,56.1,29.78,SSE,161,0.0,1.0,52,0.00,,,0.00,Wunderground v.1.15,2013-05-16 04:55:00,
2013-05-16 01:00:00,74.9,56.1,29.78,SSE,162,0.0,0.0,52,0.00,,,0.00,Wunderground v.1.15,2013-05-16 05:00:00,
2013-05-16 01:05:00,74.9,56.1,29.78,SSE,162,0.0,0.0,52,0.00,,,0.00,Wunderground v.1.15,2013-05-16 05:05:00,
2013-05-16 01:14:00,75.0,56.7,29.78,SSE,160,0.0,2.0,53,0.00,,,0.00,Wunderground v.1.15,2013-05-16 05:14:00,
2013-05-16 01:20:00,74.9,55.6,29.78,SE,143,0.0,1.0,51,0.00,,,0.00,Wunderground v.1.15,2013-05-16 05:20:00,
2013-05-16 01:30:00,75.4,55.5,29.77,SSE,149,0.0,1.0,50,0.00,,,0.00,Wunderground v.1.15,2013-05-16 05:30:00,
2013-05-16 01:35:00,75.7,55.7,29.77,WNW,283,0.0,1.0,50,0.00,,,0.00,Wunderground v.1.15,2013-05-16 05:35:00,
2013-05-16 01:44:00,76.0,56.0,29.77,SE,142,0.0,0.0,50,0.00,,,0.00,Wunderground v.1.15,2013-05-16 05:44:00,
2013-05-16 01:50:00,75.7,56.8,29.76,SE,142,0.0,0.0,52,0.00,,,0.00,Wunderground v.1.15,2013-05-16 05:50:00,
2013-05-16 02:00:00,75.6,55.6,29.76,South,172,0.0,0.0,50,0.00,,,0.00,Wunderground v.1.15,2013-05-16 06:00:00,
2013-05-16 02:05:00,76.2,55.6,29.76,South,172,0.0,0.0,49,0.00,,,0.00,Wunderground v.1.15,2013-05-16 06:05:00,
2013-05-16 02:14:00,75.9,55.9,29.76,South,173,0.0,0.0,50,0.00,,,0.00,Wunderground v.1.15,2013-05-16 06:14:00,
2013-05-16 02:20:00,75.7,56.3,29.76,South,173,0.0,1.0,51,0.00,,,0.00,Wunderground v.1.15,2013-05-16 06:20:00,
2013-05-16 02:29:00,75.2,55.8,29.76,SSE,157,0.0,0.0,51,0.00,,,0.00,Wunderground v.1.15,2013-05-16 06:29:00,
2013-05-16 02:35:00,75.1,55.7,29.76,SE,145,0.0,0.0,51,0.00,,,0.00,Wunderground v.1.15,2013-05-16 06:35:00,
2013-05-16 02:44:00,75.1,56.3,29.76,SE,139,0.0,1.0,52,0.00,,,0.00,Wunderground v.1.15,2013-05-16 06:44:00,
2013-05-16 02:50:00,75.1,55.7,29.76,SE,139,0.0,0.0,51,0.00,,,0.00,Wunderground v.1.15,2013-05-16 06:50:00,
2013-05-16 03:00:00,74.8,57.0,29.76,SSW,205,0.0,0.0,54,0.00,,,0.00,Wunderground v.1.15,2013-05-16 07:00:00,
2013-05-16 03:05:00,74.3,56.1,29.76,WSW,256,0.0,0.0,53,0.00,,,0.00,Wunderground v.1.15,2013-05-16 07:05:00,
2013-05-16 03:14:00,73.9,56.2,29.77,NW,325,0.0,1.0,54,0.00,,,0.00,Wunderground v.1.15,2013-05-16 07:14:00,
2013-05-16 03:19:00,73.9,56.2,29.76,NW,322,0.0,0.0,54,0.00,,,0.00,Wunderground v.1.15,2013-05-16 07:19:00,
2013-05-16 03:25:00,73.8,55.1,29.76,East,95,1.0,1.0,52,0.00,,,0.00,Wunderground v.1.15,2013-05-16 07:25:00,
2013-05-16 03:35:00,74.2,56.0,29.76,SE,145,0.0,1.0,53,0.00,,,0.00,Wunderground v.1.15,2013-05-16 07:35:00,
2013-05-16 03:40:00,74.2,56.0,29.76,SSE,154,0.0,0.0,53,0.00,,,0.00,Wunderground v.1.15,2013-05-16 07:40:00,
2013-05-16 03:50:00,74.1,55.9,29.76,SE,136,0.0,0.0,53,0.00,,,0.00,Wunderground v.1.15,2013-05-16 07:50:00,
2013-05-16 03:55:00,74.1,55.9,29.76,North,8,0.0,2.0,53,0.00,,,0.00,Wunderground v.1.15,2013-05-16 07:55:00,
2013-05-16 04:05:00,74.3,55.5,29.76,SSE,156,1.0,2.0,52,0.00,,,0.00,Wunderground v.1.15,2013-05-16 08:05:00,
2013-05-16 04:15:00,74.4,55.6,29.76,South,180,0.0,1.0,52,0.00,,,0.00,Wunderground v.1.15,2013-05-16 08:15:00,
2013-05-16 04:25:00,73.9,56.2,29.76,SSW,208,0.0,0.0,54,0.00,,,0.00,Wunderground v.1.15,2013-05-16 08:25:00,
2013-05-16 04:30:00,73.7,55.5,29.76,SSW,193,0.0,0.0,53,0.00,,,0.00,Wunderground v.1.15,2013-05-16 08:30:00,
2013-05-16 04:40:00,74.1,54.8,29.76,West,278,0.0,0.0,51,0.00,,,0.00,Wunderground v.1.15,2013-05-16 08:40:00,
2013-05-16 04:50:00,74.9,55.0,29.76,NNW,330,1.0,1.0,50,0.00,,,0.00,Wunderground v.1.15,2013-05-16 08:50:00,
2013-05-16 04:55:00,75.1,55.2,29.76,SSE,158,1.0,1.0,50,0.00,,,0.00,Wunderground v.1.15,2013-05-16 08:55:00,
2013-05-16 05:05:00,75.3,55.4,29.76,NNW,348,1.0,1.0,50,0.00,,,0.00,Wunderground v.1.15,2013-05-16 09:05:00,
2013-05-16 05:15:00,75.2,55.3,29.76,ESE,113,1.0,1.0,50,0.00,,,0.00,Wunderground v.1.15,2013-05-16 09:15:00,
2013-05-16 05:25:00,75.1,55.2,29.76,SW,216,0.0,1.0,50,0.00,,,0.00,Wunderground v.1.15,2013-05-16 09:25:00,
2013-05-16 05:30:00,74.9,55.0,29.76,WNW,287,0.0,1.0,50,0.00,,,0.00,Wunderground v.1.15,2013-05-16 09:30:00,
2013-05-16 05:40:00,75.0,55.1,29.76,West,276,0.0,0.0,50,0.00,,,0.00,Wunderground v.1.15,2013-05-16 09:40:00,
2013-05-16 05:49:00,75.0,54.5,29.77,NW,310,0.0,0.0,49,0.00,,,0.00,Wunderground v.1.15,2013-05-16 09:49:00,
2013-05-16 05:55:00,74.9,55.0,29.77,SW,231,0.0,0.0,50,0.00,,,0.00,Wunderground v.1.15,2013-05-16 09:55:00,
2013-05-16 06:05:00,73.9,54.6,29.77,South,179,0.0,0.0,51,0.00,,,0.00,Wunderground v.1.15,2013-05-16 10:05:00,
2013-05-16 06:15:00,73.5,54.8,29.77,SSE,159,0.0,0.0,52,0.00,,,0.00,Wunderground v.1.15,2013-05-16 10:15:00,
2013-05-16 06:25:00,73.0,54.3,29.78,South,171,0.0,0.0,52,0.00,,,0.00,Wunderground v.1.15,2013-05-16 10:25:00,
2013-05-16 06:30:00,72.8,54.7,29.78,SSE,152,0.0,0.0,53,0.00,,,0.00,Wunderground v.1.15,2013-05-16 10:30:00,
2013-05-16 06:39:00,72.6,55.0,29.79,SSE,152,0.0,0.0,54,0.00,,,0.00,Wunderground v.1.15,2013-05-16 10:39:00,
2013-05-16 06:45:00,72.1,55.0,29.79,SSE,153,0.0,0.0,55,0.00,,,0.00,Wunderground v.1.15,2013-05-16 10:45:00,
2013-05-16 06:54:00,71.3,54.8,29.80,SSE,152,0.0,0.0,56,0.00,,,0.00,Wunderground v.1.15,2013-05-16 10:54:00,
2013-05-16 07:00:00,71.3,55.8,29.80,SSE,147,0.0,0.0,58,0.00,,,0.00,Wunderground v.1.15,2013-05-16 11:00:00,
2013-05-16 07:05:00,71.1,55.6,29.80,SSE,147,0.0,0.0,58,0.00,,,0.00,Wunderground v.1.15,2013-05-16 11:05:00,
2013-05-16 07:14:00,70.8,55.8,29.80,SSE,147,0.0,0.0,59,0.00,,,0.00,Wunderground v.1.15,2013-05-16 11:14:00,
2013-05-16 07:20:00,70.7,56.1,29.80,SSE,148,0.0,0.0,60,0.00,,,0.00,Wunderground v.1.15,2013-05-16 11:20:00,
2013-05-16 07:29:00,70.7,55.2,29.80,SSE,148,0.0,0.0,58,0.00,,,0.00,Wunderground v.1.15,2013-05-16 11:29:00,
2013-05-16 07:35:00,70.8,58.0,29.81,SSE,147,0.0,0.0,64,0.00,,,0.00,Wunderground v.1.15,2013-05-16 11:35:00,
2013-05-16 07:45:00,70.5,55.9,29.81,SSE,148,0.0,0.0,60,0.00,,,0.00,Wunderground v.1.15,2013-05-16 11:45:00,
2013-05-16 07:50:00,70.7,56.1,29.81,SSE,148,0.0,0.0,60,0.00,,,0.00,Wunderground v.1.15,2013-05-16 11:50:00,
2013-05-16 07:59:00,71.2,57.1,29.81,SSE,148,0.0,0.0,61,0.00,,,0.00,Wunderground v.1.15,2013-05-16 11:59:00,
2013-05-16 08:05:00,71.5,56.9,29.81,South,182,0.0,0.0,60,0.00,,,0.00,Wunderground v.1.15,2013-05-16 12:05:00,
2013-05-16 08:14:00,71.9,56.3,29.81,ENE,60,0.0,0.0,58,0.00,,,0.00,Wunderground v.1.15,2013-05-16 12:14:00,
2013-05-16 08:19:00,72.3,55.7,29.82,SE,138,0.0,1.0,56,0.00,,,0.00,Wunderground v.1.15,2013-05-16 12:19:00,
2013-05-16 08:25:00,72.9,55.3,29.82,North,9,0.0,1.0,54,0.00,,,0.00,Wunderground v.1.15,2013-05-16 12:25:00,
2013-05-16 08:34:00,73.7,57.0,29.82,WNW,299,0.0,0.0,56,0.00,,,0.00,Wunderground v.1.15,2013-05-16 12:34:00,
2013-05-16 08:40:00,73.7,56.5,29.82,WNW,300,0.0,0.0,55,0.00,,,0.00,Wunderground v.1.15,2013-05-16 12:40:00,
2013-05-16 08:50:00,74.4,57.7,29.81,NNW,341,1.0,2.0,56,0.00,,,0.00,Wunderground v.1.15,2013-05-16 12:50:00,
2013-05-16 08:55:00,74.9,56.6,29.81,North,354,2.0,4.0,53,0.00,,,0.00,Wunderground v.1.15,2013-05-16 12:55:00,
2013-05-16 09:05:00,75.7,57.9,29.81,North,8,1.0,1.0,54,0.00,,,0.00,Wunderground v.1.15,2013-05-16 13:05:00,
2013-05-16 09:15:00,76.4,57.5,29.81,SW,214,2.0,2.0,52,0.00,,,0.00,Wunderground v.1.15,2013-05-16 13:15:00,
2013-05-16 09:25:00,76.6,58.2,29.82,East,97,0.0,0.0,53,0.00,,,0.00,Wunderground v.1.15,2013-05-16 13:25:00,
2013-05-16 09:30:00,77.0,57.5,29.82,West,261,0.0,0.0,51,0.00,,,0.00,Wunderground v.1.15,2013-05-16 13:30:00,
2013-05-16 09:40:00,77.5,58.5,29.82,WSW,242,0.0,0.0,52,0.00,,,0.00,Wunderground v.1.15,2013-05-16 13:40:00,
2013-05-16 09:50:00,77.8,59.3,29.82,South,177,0.0,0.0,53,0.00,,,0.00,Wunderground v.1.15,2013-05-16 13:50:00,
2013-05-16 09:55:00,78.1,60.1,29.82,NNE,23,0.0,1.0,54,0.00,,,0.00,Wunderground v.1.15,2013-05-16 13:55:00,
2013-05-16 10:05:00,78.7,59.0,29.82,NNW,339,0.0,0.0,51,0.00,,,0.00,Wunderground v.1.15,2013-05-16 14:05:00,
2013-05-16 10:15:00,78.8,59.7,29.82,NW,325,1.0,1.0,52,0.00,,,0.00,Wunderground v.1.15,2013-05-16 14:15:00,
2013-05-16 10:25:00,78.9,59.2,29.82,WSW,237,0.0,1.0,51,0.00,,,0.00,Wunderground v.1.15,2013-05-16 14:25:00,
2013-05-16 10:30:00,79.1,61.0,29.82,SE,142,0.0,0.0,54,0.00,,,0.00,Wunderground v.1.15,2013-05-16 14:30:00,
2013-05-16 10:39:00,79.4,60.8,29.83,South,185,0.0,0.0,53,0.00,,,0.00,Wunderground v.1.15,2013-05-16 14:39:00,
2013-05-16 10:45:00,79.6,60.4,29.83,SE,145,0.0,0.0,52,0.00,,,0.00,Wunderground v.1.15,2013-05-16 14:45:00,
2013-05-16 10:55:00,79.7,61.6,29.83,East,95,0.0,1.0,54,0.00,,,0.00,Wunderground v.1.15,2013-05-16 14:55:00,
2013-05-16 11:05:00,80.1,61.4,29.83,NW,312,1.0,2.0,53,0.00,,,0.00,Wunderground v.1.15,2013-05-16 15:05:00,
2013-05-16 11:14:00,80.6,61.3,29.83,WSW,249,1.0,1.0,52,0.00,,,0.00,Wunderground v.1.15,2013-05-16 15:14:00,
2013-05-16 11:20:00,80.7,62.0,29.83,SSE,159,1.0,1.0,53,0.00,,,0.00,Wunderground v.1.15,2013-05-16 15:20:00,
2013-05-16 11:30:00,81.1,61.3,29.84,SSE,168,0.0,0.0,51,0.00,,,0.00,Wunderground v.1.15,2013-05-16 15:30:00,
2013-05-16 11:35:00,81.4,63.2,29.84,SSW,196,0.0,1.0,54,0.00,,,0.00,Wunderground v.1.15,2013-05-16 15:35:00,
2013-05-16 11:45:00,81.7,62.4,29.83,East,93,1.0,1.0,52,0.00,,,0.00,Wunderground v.1.15,2013-05-16 15:45:00,
2013-05-16 11:54:00,82.0,62.6,29.82,ENE,73,0.0,1.0,52,0.00,,,0.00,Wunderground v.1.15,2013-05-16 15:54:00,
2013-05-16 12:00:00,82.2,62.8,29.82,SSE,168,1.0,2.0,52,0.00,,,0.00,Wunderground v.1.15,2013-05-16 16:00:00,
2013-05-16 12:05:00,82.4,61.9,29.82,SSE,168,1.0,2.0,50,0.00,,,0.00,Wunderground v.1.15,2013-05-16 16:05:00,
2013-05-16 12:14:00,82.9,64.0,29.82,South,172,0.0,0.0,53,0.00,,,0.00,Wunderground v.1.15,2013-05-16 16:14:00,
2013-05-16 12:20:00,83.0,65.2,29.82,South,173,0.0,0.0,55,0.00,,,0.00,Wunderground v.1.15,2013-05-16 16:20:00,
2013-05-16 12:25:00,83.4,61.7,29.82,WSW,252,0.0,0.0,48,0.00,,,0.00,Wunderground v.1.15,2013-05-16 16:25:00,
2013-05-16 12:35:00,84.2,63.5,29.81,WSW,240,0.0,0.0,50,0.00,,,0.00,Wunderground v.1.15,2013-05-16 16:35:00,
2013-05-16 12:40:00,84.6,63.3,29.81,WSW,240,0.0,0.0,49,0.00,,,0.00,Wunderground v.1.15,2013-05-16 16:40:00,
2013-05-16 12:50:00,85.1,63.8,29.81,WSW,256,0.0,0.0,49,0.00,,,0.00,Wunderground v.1.15,2013-05-16 16:50:00,
2013-05-16 12:59:00,85.6,64.8,29.81,SW,217,0.0,2.0,50,0.00,,,0.00,Wunderground v.1.15,2013-05-16 16:59:00,
2013-05-16 13:05:00,86.1,64.7,29.81,West,270,1.0,2.0,49,0.00,,,0.00,Wunderground v.1.15,2013-05-16 17:05:00,
2013-05-16 13:14:00,86.3,66.0,29.80,South,170,0.0,0.0,51,0.00,,,0.00,Wunderground v.1.15,2013-05-16 17:14:00,
2013-05-16 13:19:00,86.1,65.9,29.81,South,170,0.0,0.0,51,0.00,,,0.00,Wunderground v.1.15,2013-05-16 17:19:00,
2013-05-16 13:25:00,86.0,64.6,29.80,SSE,158,0.0,0.0,49,0.00,,,0.00,Wunderground v.1.15,2013-05-16 17:25:00,
2013-05-16 13:34:00,85.8,65.6,29.80,SSW,206,0.0,0.0,51,0.00,,,0.00,Wunderground v.1.15,2013-05-16 17:34:00,
2013-05-16 13:40:00,85.5,65.3,29.80,SSW,207,0.0,0.0,51,0.00,,,0.00,Wunderground v.1.15,2013-05-16 17:40:00,
2013-05-16 13:50:00,84.7,65.1,29.80,SSW,212,0.0,1.0,52,0.00,,,0.00,Wunderground v.1.15,2013-05-16 17:50:00,
2013-05-16 13:59:00,85.1,66.0,29.79,SSW,192,0.0,0.0,53,0.00,,,0.00,Wunderground v.1.15,2013-05-16 17:59:00,
2013-05-16 14:05:00,84.7,66.2,29.79,SSW,192,0.0,0.0,54,0.00,,,0.00,Wunderground v.1.15,2013-05-16 18:05:00,
2013-05-16 14:15:00,83.2,65.9,29.79,South,191,0.0,0.0,56,0.00,,,0.00,Wunderground v.1.15,2013-05-16 18:15:00,
2013-05-16 14:24:00,79.5,68.4,29.79,NNW,343,1.0,1.0,69,0.00,,,0.01,Wunderground v.1.15,2013-05-16 18:24:00,
2013-05-16 14:30:00,76.1,68.0,29.80,NNW,341,1.0,1.0,76,0.00,,,0.01,Wunderground v.1.15,2013-05-16 18:30:00,
2013-05-16 14:39:00,72.6,66.4,29.81,NNW,345,0.0,3.0,81,0.00,,,0.01,Wunderground v.1.15,2013-05-16 18:39:00,
2013-05-16 14:45:00,71.2,65.8,29.81,NNW,338,1.0,6.0,83,0.00,,,0.01,Wunderground v.1.15,2013-05-16 18:45:00,
2013-05-16 14:54:00,68.8,65.7,29.85,SSW,208,2.0,3.0,90,0.45,,,0.14,Wunderground v.1.15,2013-05-16 18:54:00,
2013-05-16 15:00:00,68.3,65.9,29.83,South,179,0.0,0.0,92,1.13,,,0.25,Wunderground v.1.15,2013-05-16 19:00:00,
2013-05-16 15:05:00,67.9,65.8,29.82,South,179,0.0,1.0,93,0.26,,,0.27,Wunderground v.1.15,2013-05-16 19:05:00,
2013-05-16 15:15:00,67.1,65.0,29.83,South,175,1.0,1.0,93,0.06,,,0.27,Wunderground v.1.15,2013-05-16 19:15:00,
2013-05-16 15:20:00,66.9,65.1,29.83,South,176,0.0,0.0,94,0.04,,,0.27,Wunderground v.1.15,2013-05-16 19:20:00,
2013-05-16 15:29:00,66.7,65.2,29.83,South,175,0.0,0.0,95,0.00,,,0.27,Wunderground v.1.15,2013-05-16 19:29:00,
2013-05-16 15:35:00,66.7,65.2,29.82,South,176,0.0,0.0,95,0.00,,,0.27,Wunderground v.1.15,2013-05-16 19:35:00,
2013-05-16 15:45:00,66.7,65.5,29.82,South,176,0.0,0.0,96,0.00,,,0.27,Wunderground v.1.15,2013-05-16 19:45:00,
2013-05-16 15:54:00,66.8,65.6,29.81,South,176,0.0,0.0,96,0.00,,,0.27,Wunderground v.1.15,2013-05-16 19:54:00,
2013-05-16 16:00:00,66.9,65.7,29.81,South,176,0.0,0.0,96,0.00,,,0.27,Wunderground v.1.15,2013-05-16 20:00:00,
2013-05-16 16:05:00,67.3,66.4,29.81,South,176,0.0,0.0,97,0.00,,,0.27,Wunderground v.1.15,2013-05-16 20:05:00,
2013-05-16 16:14:00,68.0,67.1,29.81,South,178,0.0,2.0,97,0.00,,,0.27,Wunderground v.1.15,2013-05-16 20:14:00,
2013-05-16 16:20:00,68.8,67.9,29.81,SSW,204,1.0,1.0,97,0.00,,,0.27,Wunderground v.1.15,2013-05-16 20:20:00,
2013-05-16 16:25:00,69.0,67.8,29.81,SSW,204,0.0,1.0,96,0.00,,,0.27,Wunderground v.1.15,2013-05-16 20:25:00,
2013-05-16 16:35:00,69.0,67.5,29.82,SSW,204,0.0,0.0,95,0.00,,,0.27,Wunderground v.1.15,2013-05-16 20:35:00,
2013-05-16 16:40:00,69.1,67.9,29.82,SSW,204,0.0,0.0,96,0.00,,,0.27,Wunderground v.1.15,2013-05-16 20:40:00,
2013-05-16 16:50:00,69.1,67.6,29.82,South,170,0.0,0.0,95,0.00,,,0.27,Wunderground v.1.15,2013-05-16 20:50:00,
2013-05-16 16:59:00,69.1,67.6,29.83,South,170,0.0,0.0,95,0.00,,,0.27,Wunderground v.1.15,2013-05-16 20:59:00,
2013-05-16 17:05:00,69.0,67.5,29.83,South,170,0.0,0.0,95,0.00,,,0.27,Wunderground v.1.15,2013-05-16 21:05:00,
2013-05-16 17:14:00,68.8,67.3,29.83,South,170,0.0,0.0,95,0.00,,,0.27,Wunderground v.1.15,2013-05-16 21:14:00,
2013-05-16 17:19:00,68.9,67.4,29.83,South,170,0.0,0.0,95,0.00,,,0.27,Wunderground v.1.15,2013-05-16 21:19:00,
2013-05-16 17:25:00,69.0,67.8,29.82,South,170,0.0,0.0,96,0.00,,,0.27,Wunderground v.1.15,2013-05-16 21:25:00,
2013-05-16 17:34:00,69.4,68.2,29.83,South,170,0.0,0.0,96,0.00,,,0.27,Wunderground v.1.15,2013-05-16 21:34:00,
2013-05-16 17:40:00,69.7,68.5,29.82,South,170,0.0,0.0,96,0.00,,,0.27,Wunderground v.1.15,2013-05-16 21:40:00,
2013-05-16 17:50:00,69.8,68.6,29.82,South,170,0.0,0.0,96,0.00,,,0.27,Wunderground v.1.15,2013-05-16 21:50:00,
2013-05-16 17:59:00,69.6,68.4,29.82,South,170,0.0,0.0,96,0.00,,,0.27,Wunderground v.1.15,2013-05-16 21:59:00,
2013-05-16 18:05:00,69.5,68.3,29.83,South,170,0.0,0.0,96,0.00,,,0.27,Wunderground v.1.15,2013-05-16 22:05:00,
2013-05-16 18:15:00,69.3,68.1,29.83,South,170,0.0,0.0,96,0.00,,,0.27,Wunderground v.1.15,2013-05-16 22:15:00,
2013-05-16 18:25:00,69.2,68.0,29.83,South,170,0.0,0.0,96,0.00,,,0.27,Wunderground v.1.15,2013-05-16 22:25:00,
2013-05-16 18:30:00,69.2,68.0,29.83,South,170,0.0,0.0,96,0.00,,,0.27,Wunderground v.1.15,2013-05-16 22:30:00,
2013-05-16 18:39:00,69.2,68.0,29.83,South,170,0.0,0.0,96,0.00,,,0.27,Wunderground v.1.15,2013-05-16 22:39:00,
2013-05-16 18:49:00,69.1,67.9,29.83,South,170,0.0,0.0,96,0.00,,,0.27,Wunderground v.1.15,2013-05-16 22:49:00,
2013-05-16 18:55:00,69.1,68.2,29.83,South,170,0.0,0.0,97,0.00,,,0.27,Wunderground v.1.15,2013-05-16 22:55:00,
2013-05-16 19:05:00,69.3,68.4,29.84,South,170,0.0,0.0,97,0.00,,,0.27,Wunderground v.1.15,2013-05-16 23:05:00,
2013-05-16 19:15:00,69.6,68.7,29.84,South,170,0.0,0.0,97,0.00,,,0.27,Wunderground v.1.15,2013-05-16 23:15:00,
2013-05-16 19:24:00,69.6,68.4,29.84,South,170,0.0,0.0,96,0.00,,,0.27,Wunderground v.1.15,2013-05-16 23:24:00,
2013-05-16 19:30:00,69.5,68.0,29.84,South,170,0.0,0.0,95,0.00,,,0.27,Wunderground v.1.15,2013-05-16 23:30:00,
2013-05-16 19:39:00,69.5,68.0,29.85,South,170,0.0,0.0,95,0.00,,,0.27,Wunderground v.1.15,2013-05-16 23:39:00,
2013-05-16 19:45:00,69.4,67.9,29.85,South,170,0.0,0.0,95,0.00,,,0.27,Wunderground v.1.15,2013-05-16 23:45:00,
2013-05-16 19:55:00,69.1,67.9,29.85,South,170,0.0,0.0,96,0.00,,,0.27,Wunderground v.1.15,2013-05-16 23:55:00,
2013-05-16 20:05:00,68.9,67.7,29.85,South,170,0.0,0.0,96,0.00,,,0.27,Wunderground v.1.15,2013-05-17 00:05:00,
2013-05-16 20:14:00,68.6,67.4,29.86,South,170,0.0,0.0,96,0.00,,,0.27,Wunderground v.1.15,2013-05-17 00:14:00,
2013-05-16 20:20:00,68.5,67.3,29.86,South,170,0.0,0.0,96,0.00,,,0.27,Wunderground v.1.15,2013-05-17 00:20:00,
2013-05-16 20:30:00,68.3,67.4,29.87,South,170,0.0,0.0,97,0.00,,,0.27,Wunderground v.1.15,2013-05-17 00:30:00,
2013-05-16 20:39:00,68.2,67.0,29.87,South,170,0.0,0.0,96,0.00,,,0.27,Wunderground v.1.15,2013-05-17 00:39:00,
2013-05-16 20:44:00,68.2,67.0,29.87,South,170,0.0,0.0,96,0.00,,,0.27,Wunderground v.1.15,2013-05-17 00:44:00,
2013-05-16 20:54:00,68.2,67.0,29.88,South,170,0.0,0.0,96,0.00,,,0.27,Wunderground v.1.15,2013-05-17 00:54:00,
2013-05-16 21:00:00,68.1,66.9,29.88,South,170,0.0,0.0,96,0.00,,,0.27,Wunderground v.1.15,2013-05-17 01:00:00,
2013-05-16 21:05:00,68.1,66.9,29.88,South,170,0.0,0.0,96,0.00,,,0.27,Wunderground v.1.15,2013-05-17 01:05:00,
2013-05-16 21:14:00,67.9,66.7,29.89,South,170,0.0,0.0,96,0.00,,,0.27,Wunderground v.1.15,2013-05-17 01:14:00,
2013-05-16 21:20:00,67.6,66.4,29.89,South,170,0.0,0.0,96,0.00,,,0.27,Wunderground v.1.15,2013-05-17 01:20:00,
2013-05-16 21:29:00,67.5,66.6,29.90,South,170,0.0,0.0,97,0.00,,,0.27,Wunderground v.1.15,2013-05-17 01:29:00,
2013-05-16 21:35:00,67.5,66.6,29.90,South,170,0.0,0.0,97,0.00,,,0.27,Wunderground v.1.15,2013-05-17 01:35:00,
2013-05-16 21:44:00,67.5,66.6,29.90,South,170,0.0,0.0,97,0.00,,,0.27,Wunderground v.1.15,2013-05-17 01:44:00,
2013-05-16 21:50:00,67.4,66.5,29.90,South,170,0.0,0.0,97,0.00,,,0.27,Wunderground v.1.15,2013-05-17 01:50:00,
2013-05-16 21:59:00,67.3,66.4,29.91,South,170,0.0,0.0,97,0.00,,,0.27,Wunderground v.1.15,2013-05-17 01:59:00,
2013-05-16 22:05:00,67.2,66.3,29.91,South,170,0.0,0.0,97,0.00,,,0.27,Wunderground v.1.15,2013-05-17 02:05:00,
2013-05-16 22:14:00,67.1,66.2,29.91,South,170,0.0,0.0,97,0.00,,,0.27,Wunderground v.1.15,2013-05-17 02:14:00,
2013-05-16 22:19:00,66.9,65.7,29.91,South,170,0.0,0.0,96,0.00,,,0.27,Wunderground v.1.15,2013-05-17 02:19:00,
2013-05-16 22:25:00,66.7,65.5,29.91,South,170,0.0,0.0,96,0.00,,,0.27,Wunderground v.1.15,2013-05-17 02:25:00,
2013-05-16 22:34:00,66.5,65.0,29.91,South,170,0.0,0.0,95,0.00,,,0.27,Wunderground v.1.15,2013-05-17 02:34:00,
2013-05-16 22:44:00,66.5,63.5,29.91,South,170,0.0,0.0,90,0.00,,,0.27,Wunderground v.1.15,2013-05-17 02:44:00,
2013-05-16 22:49:00,66.8,65.0,29.91,South,170,0.0,0.0,94,0.00,,,0.27,Wunderground v.1.15,2013-05-17 02:49:00,
2013-05-16 22:55:00,66.7,65.2,29.91,South,170,0.0,0.0,95,0.00,,,0.27,Wunderground v.1.15,2013-05-17 02:55:00,
2013-05-16 23:05:00,66.2,64.1,29.91,South,170,0.0,0.0,93,0.00,,,0.27,Wunderground v.1.15,2013-05-17 03:05:00,
2013-05-16 23:15:00,65.9,62.9,29.91,South,170,0.0,0.0,90,0.00,,,0.27,Wunderground v.1.15,2013-05-17 03:15:00,
2013-05-16 23:24:00,66.2,62.5,29.91,South,170,0.0,0.0,88,0.00,,,0.27,Wunderground v.1.15,2013-05-17 03:24:00,
2013-05-16 23:30:00,66.4,62.7,29.91,South,170,0.0,0.0,88,0.00,,,0.27,Wunderground v.1.15,2013-05-17 03:30:00,
2013-05-16 23:40:00,66.3,63.6,29.91,South,170,0.0,0.0,91,0.00,,,0.27,Wunderground v.1.15,2013-05-17 03:40:00,
2013-05-16 23:49:00,65.7,63.0,29.91,South,170,0.0,0.0,91,0.00,,,0.27,Wunderground v.1.15,2013-05-17 03:49:00,
2013-05-16 23:55:00,65.6,62.6,29.91,South,170,0.0,0.0,90,0.00,,,0.27,Wunderground v.1.15,2013-05-17 03:55:00,